Time;durP1;ratioP1;P1;durP2;ratioP2;P2;SDS_P1;SDS_P2;PMS_P1;PMS_P2;Temp;Humidity;BMP_temperature;BMP_pressure;BME280_temperature;BME280_humidity;BME280_pressure;Samples;Min_cycle;Max_cycle;Signal;HPM_P1;HPM_P2
2022/03/19 00:02:30;;;;;;;1.47;0.83;;;;;;;;;;5074000;28;20224;-69
2022/03/19 00:04:57;;;;;;;1.47;0.80;;;;;;;;;;5073043;28;20204;-69
2022/03/19 00:07:27;;;;;;;0.63;0.60;;;;;;;;;;5056893;28;20182;-69
2022/03/19 00:09:57;;;;;;;0.70;0.70;;;;;;;;;;5067292;28;20201;-70
2022/03/19 00:12:27;;;;;;;1.57;0.90;;;;;;;;;;5064333;28;20623;-70
2022/03/19 00:14:56;;;;;;;1.07;0.80;;;;;;;;;;5071577;28;20232;-69
2022/03/19 00:17:28;;;;;;;2.43;0.83;;;;;;;;;;5077528;28;20198;-71
2022/03/19 00:20:04;;;;;;;1.07;0.93;;;;;;;;;;5076158;28;20204;-69
2022/03/19 00:22:34;;;;;;;1.30;0.80;;;;;;;;;;5040705;28;20894;-70
2022/03/19 00:25:07;;;;;;;0.90;0.60;;;;;;;;;;5035705;28;20208;-70
2022/03/19 00:27:43;;;;;;;1.60;0.87;;;;;;;;;;5066096;28;20231;-69
2022/03/19 00:30:15;;;;;;;1.40;0.70;;;;;;;;;;5059816;28;20519;-69
2022/03/19 00:32:48;;;;;;;0.97;0.90;;;;;;;;;;5081594;28;20201;-70
2022/03/19 00:35:17;;;;;;;1.07;0.97;;;;;;;;;;5073115;28;20552;-70
2022/03/19 00:37:48;;;;;;;1.40;0.80;;;;;;;;;;5077530;28;20702;-69
2022/03/19 00:40:18;;;;;;;1.13;0.87;;;;;;;;;;5055081;28;20726;-70
2022/03/19 00:42:51;;;;;;;0.87;0.77;;;;;;;;;;5066828;28;20221;-70
2022/03/19 00:45:20;;;;;;;1.27;0.80;;;;;;;;;;5020320;28;20198;-70
2022/03/19 00:47:51;;;;;;;1.33;0.80;;;;;;;;;;5070642;28;20573;-70
2022/03/19 00:50:22;;;;;;;0.90;0.80;;;;;;;;;;5066270;28;20192;-70
2022/03/19 00:52:51;;;;;;;2.33;1.20;;;;;;;;;;5058350;28;20197;-70
2022/03/19 00:55:24;;;;;;;2.00;0.90;;;;;;;;;;5066138;28;20189;-71
2022/03/19 00:57:53;;;;;;;1.70;1.03;;;;;;;;;;5069029;28;20208;-70
2022/03/19 01:00:24;;;;;;;1.83;0.97;;;;;;;;;;5084961;28;20268;-69
2022/03/19 01:02:59;;;;;;;1.07;0.67;;;;;;;;;;5062846;28;20658;-69
2022/03/19 01:05:27;;;;;;;1.67;1.10;;;;;;;;;;5065439;28;20629;-70
2022/03/19 01:08:19;;;;;;;0.70;0.70;;;;;;;;;;5064502;28;20213;-69
2022/03/19 01:10:47;;;;;;;0.70;0.70;;;;;;;;;;5065897;28;20189;-70
2022/03/19 01:13:17;;;;;;;0.70;0.67;;;;;;;;;;5065212;28;20193;-69
2022/03/19 01:15:45;;;;;;;0.80;0.80;;;;;;;;;;5063107;28;20201;-69
2022/03/19 01:18:15;;;;;;;0.83;0.60;;;;;;;;;;5071652;28;20239;-70
2022/03/19 01:20:48;;;;;;;1.10;1.00;;;;;;;;;;5068198;28;20248;-70
2022/03/19 01:23:21;;;;;;;1.20;1.10;;;;;;;;;;5070145;28;20189;-69
2022/03/19 01:25:54;;;;;;;1.43;0.80;;;;;;;;;;5054252;28;20288;-70
2022/03/19 01:28:23;;;;;;;1.07;0.70;;;;;;;;;;5064184;28;20221;-69
2022/03/19 01:31:00;;;;;;;1.47;0.90;;;;;;;;;;5069547;28;20600;-70
2022/03/19 01:33:33;;;;;;;0.90;0.80;;;;;;;;;;5083060;28;20200;-70
2022/03/19 01:36:05;;;;;;;0.77;0.70;;;;;;;;;;5072700;28;20201;-69
2022/03/19 01:38:34;;;;;;;1.00;0.70;;;;;;;;;;5051879;28;20214;-69
2022/03/19 01:41:04;;;;;;;1.97;0.97;;;;;;;;;;5084299;28;20223;-69
2022/03/19 01:43:56;;;;;;;1.53;1.00;;;;;;;;;;5054763;28;20267;-69
2022/03/19 01:46:29;;;;;;;1.00;0.70;;;;;;;;;;5059885;28;20194;-69
2022/03/19 01:48:59;;;;;;;0.87;0.70;;;;;;;;;;5067934;28;20201;-70
2022/03/19 01:51:30;;;;;;;1.00;0.90;;;;;;;;;;5067918;28;20220;-69
2022/03/19 01:53:59;;;;;;;1.20;0.83;;;;;;;;;;5069491;28;20205;-69
2022/03/19 01:56:34;;;;;;;1.03;0.90;;;;;;;;;;5066926;28;20581;-71
2022/03/19 01:59:04;;;;;;;1.13;0.80;;;;;;;;;;5077066;28;20248;-70
2022/03/19 02:01:35;;;;;;;1.20;1.10;;;;;;;;;;5070162;28;20201;-69
2022/03/19 02:04:08;;;;;;;1.53;1.00;;;;;;;;;;5069925;28;20627;-69
2022/03/19 02:06:43;;;;;;;1.07;0.80;;;;;;;;;;5046948;28;20212;-70
2022/03/19 02:09:16;;;;;;;2.13;1.00;;;;;;;;;;5052011;28;20541;-71
2022/03/19 02:11:59;;;;;;;1.97;1.00;;;;;;;;;;5056538;28;20221;-69
2022/03/19 02:14:34;;;;;;;1.70;0.97;;;;;;;;;;5075256;28;20202;-70
2022/03/19 02:17:04;;;;;;;1.00;0.80;;;;;;;;;;5068563;28;20213;-70
2022/03/19 02:19:51;;;;;;;1.50;0.90;;;;;;;;;;5060139;28;20363;-70
2022/03/19 02:22:38;;;;;;;1.70;0.87;;;;;;;;;;5066403;28;20667;-69
2022/03/19 02:27:56;;;;;;;1.90;0.90;;;;;;;;;;5070940;28;20539;-70
2022/03/19 02:30:32;;;;;;;1.20;1.00;;;;;;;;;;5070698;28;20197;-70
2022/03/19 02:33:02;;;;;;;1.03;0.93;;;;;;;;;;5069584;28;20227;-70
2022/03/19 02:35:30;;;;;;;1.20;0.80;;;;;;;;;;5068606;28;20194;-70
2022/03/19 02:37:59;;;;;;;1.70;0.90;;;;;;;;;;5069271;28;20761;-71
2022/03/19 02:40:35;;;;;;;1.57;1.07;;;;;;;;;;5063448;28;20233;-70
2022/03/19 02:43:04;;;;;;;1.63;1.30;;;;;;;;;;5070281;28;20658;-70
2022/03/19 02:45:35;;;;;;;2.27;1.10;;;;;;;;;;5076322;28;20202;-70
2022/03/19 02:48:30;;;;;;;1.13;0.90;;;;;;;;;;5067063;28;20193;-71
2022/03/19 02:51:02;;;;;;;1.13;0.80;;;;;;;;;;5064350;28;20276;-69
2022/03/19 02:53:33;;;;;;;1.60;1.03;;;;;;;;;;5076878;28;20197;-69
2022/03/19 02:56:15;;;;;;;0.97;0.70;;;;;;;;;;5068295;28;20286;-69
2022/03/19 02:58:47;;;;;;;1.53;1.03;;;;;;;;;;5064960;28;20267;-69
2022/03/19 03:01:17;;;;;;;2.10;1.13;;;;;;;;;;5068372;28;20197;-69
2022/03/19 03:03:49;;;;;;;1.20;1.03;;;;;;;;;;5080555;28;20213;-68
2022/03/19 03:06:20;;;;;;;1.57;0.90;;;;;;;;;;5086902;28;20200;-68
2022/03/19 03:08:50;;;;;;;1.27;1.00;;;;;;;;;;5074382;28;20200;-68
2022/03/19 03:11:21;;;;;;;1.63;1.00;;;;;;;;;;5072917;28;20213;-69
2022/03/19 03:13:51;;;;;;;1.27;0.93;;;;;;;;;;5072110;28;20201;-69
2022/03/19 03:16:21;;;;;;;2.37;0.97;;;;;;;;;;5048554;28;20225;-70
2022/03/19 03:18:59;;;;;;;2.37;1.03;;;;;;;;;;5069501;28;20316;-69
2022/03/19 03:21:31;;;;;;;1.37;1.07;;;;;;;;;;5053169;28;20193;-69
2022/03/19 03:24:02;;;;;;;1.93;1.13;;;;;;;;;;5068927;28;20642;-69
2022/03/19 03:26:35;;;;;;;2.17;1.20;;;;;;;;;;5050467;28;20205;-70
2022/03/19 03:29:05;;;;;;;1.83;1.00;;;;;;;;;;5068979;28;20874;-71
2022/03/19 03:31:38;;;;;;;1.73;1.00;;;;;;;;;;5044077;28;20201;-70
2022/03/19 03:34:10;;;;;;;1.30;1.03;;;;;;;;;;5054292;28;20190;-70
2022/03/19 03:36:42;;;;;;;1.23;1.10;;;;;;;;;;5071974;28;20190;-69
2022/03/19 03:39:12;;;;;;;2.60;1.20;;;;;;;;;;5067398;28;20244;-70
2022/03/19 03:41:42;;;;;;;1.57;1.10;;;;;;;;;;5060830;28;20687;-69
2022/03/19 03:44:10;;;;;;;1.97;1.37;;;;;;;;;;5046306;28;20194;-70
2022/03/19 03:46:40;;;;;;;1.67;1.00;;;;;;;;;;5041276;28;20201;-70
2022/03/19 03:49:14;;;;;;;1.60;1.10;;;;;;;;;;5050887;28;20221;-71
2022/03/19 03:51:47;;;;;;;1.00;0.70;;;;;;;;;;5040652;28;20722;-70
2022/03/19 03:54:20;;;;;;;1.60;1.13;;;;;;;;;;5047925;28;20194;-70
2022/03/19 03:56:49;;;;;;;1.30;1.10;;;;;;;;;;5053057;28;20213;-70
2022/03/19 03:59:23;;;;;;;1.57;1.13;;;;;;;;;;5055114;28;20647;-70
2022/03/19 04:01:52;;;;;;;1.57;1.03;;;;;;;;;;5047963;28;20194;-70
2022/03/19 04:04:23;;;;;;;1.07;1.00;;;;;;;;;;5049513;28;20754;-69
2022/03/19 04:06:57;;;;;;;1.33;1.00;;;;;;;;;;5053381;28;20264;-69
2022/03/19 04:09:28;;;;;;;2.07;1.10;;;;;;;;;;5047939;28;20202;-70
2022/03/19 04:12:03;;;;;;;1.10;1.00;;;;;;;;;;5046965;28;20216;-69
2022/03/19 04:14:31;;;;;;;2.37;1.17;;;;;;;;;;5053824;28;20202;-69
2022/03/19 04:17:02;;;;;;;1.57;0.90;;;;;;;;;;5038848;28;20193;-70
2022/03/19 04:19:40;;;;;;;1.27;1.00;;;;;;;;;;5039555;28;20218;-70
2022/03/19 04:22:10;;;;;;;1.40;1.23;;;;;;;;;;5050269;28;20203;-70
2022/03/19 04:24:46;;;;;;;1.80;1.20;;;;;;;;;;5044634;28;20186;-70
2022/03/19 04:27:20;;;;;;;1.90;1.17;;;;;;;;;;5029697;28;20279;-70
2022/03/19 04:29:52;;;;;;;1.80;0.97;;;;;;;;;;5046178;28;20248;-69
2022/03/19 04:32:21;;;;;;;1.50;1.20;;;;;;;;;;5046660;28;20205;-69
2022/03/19 04:34:50;;;;;;;1.67;1.20;;;;;;;;;;5048901;28;20198;-70
2022/03/19 04:37:20;;;;;;;1.20;1.00;;;;;;;;;;5048400;28;20228;-69
2022/03/19 04:39:50;;;;;;;2.03;1.40;;;;;;;;;;5031993;28;20244;-68
2022/03/19 04:42:19;;;;;;;1.63;1.43;;;;;;;;;;5046972;28;20774;-68
2022/03/19 04:44:50;;;;;;;2.00;1.13;;;;;;;;;;5043578;28;20665;-69
2022/03/19 04:47:19;;;;;;;1.50;1.00;;;;;;;;;;5046093;28;20193;-69
2022/03/19 04:50:06;;;;;;;1.33;1.00;;;;;;;;;;5045933;28;20190;-69
2022/03/19 04:52:36;;;;;;;1.43;1.10;;;;;;;;;;5024061;28;20218;-69
2022/03/19 04:55:06;;;;;;;1.73;1.10;;;;;;;;;;5046366;28;20186;-70
2022/03/19 04:57:38;;;;;;;1.93;1.37;;;;;;;;;;5046721;28;20248;-69
2022/03/19 05:00:10;;;;;;;1.57;1.00;;;;;;;;;;5021998;28;20206;-70
2022/03/19 05:02:37;;;;;;;1.90;1.33;;;;;;;;;;5041056;28;20198;-69
2022/03/19 05:05:08;;;;;;;1.97;1.30;;;;;;;;;;5028897;28;20198;-69
2022/03/19 05:07:37;;;;;;;2.23;1.50;;;;;;;;;;5046229;28;20187;-70
2022/03/19 05:12:58;;;;;;;1.47;1.27;;;;;;;;;;5048850;28;20198;-69
2022/03/19 05:15:26;;;;;;;2.33;1.33;;;;;;;;;;5042274;28;20214;-69
2022/03/19 05:17:57;;;;;;;1.43;1.20;;;;;;;;;;5050715;28;20200;-68
2022/03/19 05:20:26;;;;;;;1.63;1.20;;;;;;;;;;5038021;28;20225;-68
2022/03/19 05:22:56;;;;;;;1.80;1.10;;;;;;;;;;5046140;28;20193;-68
2022/03/19 05:25:25;;;;;;;1.37;1.17;;;;;;;;;;5051088;28;20190;-68
2022/03/19 05:27:57;;;;;;;1.80;1.37;;;;;;;;;;5042647;28;20230;-69
2022/03/19 05:36:21;;;;;;;1.50;1.20;;;;;;;;;;5053521;28;20198;-70
2022/03/19 05:38:49;;;;;;;3.50;1.63;;;;;;;;;;5043784;28;20233;-70
2022/03/19 05:41:19;;;;;;;1.83;1.30;;;;;;;;;;5043335;28;20200;-69
2022/03/19 05:43:54;;;;;;;1.17;0.90;;;;;;;;;;5055266;28;20227;-69
2022/03/19 05:46:23;;;;;;;1.60;1.50;;;;;;;;;;5064812;28;20255;-68
2022/03/19 05:48:55;;;;;;;1.97;1.10;;;;;;;;;;5071816;28;20190;-69
2022/03/19 05:51:36;;;;;;;2.20;1.30;;;;;;;;;;5063093;28;20213;-70
2022/03/19 05:54:07;;;;;;;2.20;1.37;;;;;;;;;;5054936;28;20563;-68
2022/03/19 05:56:39;;;;;;;2.10;1.20;;;;;;;;;;5063282;28;20201;-69
2022/03/19 05:59:12;;;;;;;1.50;1.10;;;;;;;;;;5067862;28;20243;-69
2022/03/19 06:01:44;;;;;;;1.40;1.10;;;;;;;;;;5049608;28;20201;-69
2022/03/19 06:04:19;;;;;;;1.83;1.47;;;;;;;;;;5079386;28;20214;-70
2022/03/19 06:06:50;;;;;;;1.97;1.67;;;;;;;;;;5064228;28;20247;-70
2022/03/19 06:09:22;;;;;;;3.33;1.43;;;;;;;;;;5070210;28;20205;-70
2022/03/19 06:11:52;;;;;;;1.20;1.00;;;;;;;;;;5070915;28;20201;-67
2022/03/19 06:14:30;;;;;;;1.57;1.20;;;;;;;;;;5068312;28;20205;-67
2022/03/19 06:17:00;;;;;;;1.73;1.50;;;;;;;;;;5064131;28;20194;-68
2022/03/19 06:19:33;;;;;;;1.80;1.30;;;;;;;;;;5054086;28;20266;-67
2022/03/19 06:22:01;;;;;;;2.00;1.47;;;;;;;;;;5066120;28;20201;-68
2022/03/19 06:24:30;;;;;;;1.60;1.23;;;;;;;;;;5068516;28;20204;-68
2022/03/19 06:27:01;;;;;;;1.50;1.40;;;;;;;;;;5078289;28;20204;-70
2022/03/19 06:29:46;;;;;;;1.93;1.30;;;;;;;;;;5054339;28;20186;-70
2022/03/19 06:32:20;;;;;;;1.80;1.37;;;;;;;;;;5069814;28;20213;-70
2022/03/19 06:34:51;;;;;;;2.10;1.57;;;;;;;;;;5062343;28;20578;-70
2022/03/19 06:37:27;;;;;;;2.33;1.70;;;;;;;;;;5065205;28;20197;-70
2022/03/19 06:40:07;;;;;;;1.50;1.40;;;;;;;;;;5068484;28;20267;-70
2022/03/19 06:42:40;;;;;;;2.33;1.53;;;;;;;;;;5064257;28;20237;-69
2022/03/19 06:45:11;;;;;;;2.20;1.50;;;;;;;;;;5058992;28;20209;-69
2022/03/19 06:47:46;;;;;;;1.83;1.40;;;;;;;;;;5069011;28;20757;-70
2022/03/19 06:50:16;;;;;;;2.47;1.40;;;;;;;;;;5068748;28;20198;-68
2022/03/19 06:52:47;;;;;;;1.63;1.53;;;;;;;;;;5073275;28;20212;-69
2022/03/19 06:55:30;;;;;;;2.67;1.67;;;;;;;;;;5082338;28;20241;-69
2022/03/19 06:58:03;;;;;;;2.30;1.60;;;;;;;;;;5064354;28;20198;-68
2022/03/19 07:00:35;;;;;;;3.20;2.07;;;;;;;;;;5074594;28;20749;-70
2022/03/19 07:03:07;;;;;;;3.10;1.83;;;;;;;;;;5074161;28;20201;-69
2022/03/19 07:05:40;;;;;;;2.37;1.63;;;;;;;;;;5087987;28;20285;-71
2022/03/19 07:08:12;;;;;;;1.87;1.37;;;;;;;;;;5058184;28;20197;-71
2022/03/19 07:10:46;;;;;;;2.30;1.50;;;;;;;;;;5064958;28;20828;-70
2022/03/19 07:13:16;;;;;;;2.20;1.43;;;;;;;;;;5067283;28;20222;-70
2022/03/19 07:15:46;;;;;;;2.07;1.57;;;;;;;;;;5050623;28;20255;-69
2022/03/19 07:18:18;;;;;;;2.50;1.87;;;;;;;;;;5068562;28;20206;-69
2022/03/19 07:20:48;;;;;;;3.10;1.77;;;;;;;;;;5065524;28;20217;-69
2022/03/19 07:23:19;;;;;;;2.63;1.67;;;;;;;;;;5067770;28;20190;-69
2022/03/19 07:25:49;;;;;;;2.33;1.70;;;;;;;;;;5067715;28;20190;-70
2022/03/19 07:28:20;;;;;;;3.37;2.00;;;;;;;;;;5065089;28;20740;-70
2022/03/19 07:30:51;;;;;;;3.27;1.77;;;;;;;;;;5069080;28;20272;-69
2022/03/19 07:33:21;;;;;;;1.97;1.53;;;;;;;;;;5077516;28;20189;-69
2022/03/19 07:35:52;;;;;;;2.50;2.00;;;;;;;;;;5069822;28;20545;-70
2022/03/19 07:38:21;;;;;;;2.63;1.40;;;;;;;;;;5048321;28;20213;-69
2022/03/19 07:43:41;;;;;;;2.17;1.80;;;;;;;;;;5066769;28;20226;-70
2022/03/19 07:46:13;;;;;;;2.93;2.00;;;;;;;;;;5051329;28;20182;-70
2022/03/19 07:48:45;;;;;;;2.07;1.50;;;;;;;;;;5062458;28;20301;-70
2022/03/19 07:51:18;;;;;;;4.17;2.30;;;;;;;;;;5065338;28;20206;-70
2022/03/19 07:53:50;;;;;;;2.67;1.77;;;;;;;;;;5068287;28;20193;-70
2022/03/19 07:56:20;;;;;;;3.73;2.03;;;;;;;;;;5076942;28;20542;-70
2022/03/19 07:58:50;;;;;;;2.47;1.60;;;;;;;;;;5077055;28;20213;-71
2022/03/19 08:01:22;;;;;;;2.83;1.60;;;;;;;;;;5065592;28;20271;-70
2022/03/19 08:03:56;;;;;;;3.33;2.00;;;;;;;;;;5062670;28;20239;-71
2022/03/19 08:06:27;;;;;;;2.50;1.90;;;;;;;;;;5063093;28;20255;-71
2022/03/19 08:09:00;;;;;;;3.53;1.70;;;;;;;;;;5051074;28;20278;-71
2022/03/19 08:11:38;;;;;;;3.10;1.80;;;;;;;;;;5066027;28;20194;-69
2022/03/19 08:14:08;;;;;;;2.67;2.00;;;;;;;;;;5051911;28;20200;-70
2022/03/19 08:16:39;;;;;;;2.53;1.63;;;;;;;;;;5058958;28;20210;-70
2022/03/19 08:19:12;;;;;;;2.40;1.80;;;;;;;;;;5065839;28;20198;-70
2022/03/19 08:21:47;;;;;;;2.67;1.90;;;;;;;;;;5065891;28;20266;-70
2022/03/19 08:24:18;;;;;;;1.93;1.47;;;;;;;;;;5047516;28;20232;-70
2022/03/19 08:26:47;;;;;;;4.00;1.77;;;;;;;;;;5063919;28;20186;-71
2022/03/19 08:29:19;;;;;;;3.53;1.77;;;;;;;;;;5047214;28;20213;-70
2022/03/19 08:31:51;;;;;;;2.97;1.90;;;;;;;;;;5063101;28;20253;-71
2022/03/19 08:34:22;;;;;;;2.63;1.53;;;;;;;;;;5065525;28;20214;-70
2022/03/19 08:36:55;;;;;;;2.37;1.40;;;;;;;;;;5065531;28;20261;-70
2022/03/19 08:42:11;;;;;;;2.73;1.80;;;;;;;;;;5065600;28;20244;-71
2022/03/19 08:44:39;;;;;;;2.70;1.97;;;;;;;;;;5031360;28;20198;-70
2022/03/19 08:47:08;;;;;;;3.10;1.50;;;;;;;;;;5067756;28;20197;-69
2022/03/19 08:49:40;;;;;;;3.33;1.70;;;;;;;;;;5047141;28;20197;-70
2022/03/19 08:52:10;;;;;;;2.53;1.60;;;;;;;;;;5055210;28;20209;-69
2022/03/19 08:54:40;;;;;;;3.33;1.70;;;;;;;;;;5055338;28;20209;-69
2022/03/19 08:57:11;;;;;;;3.70;2.27;;;;;;;;;;5064960;28;20189;-70
2022/03/19 08:59:45;;;;;;;2.90;1.63;;;;;;;;;;5049042;28;20215;-70
2022/03/19 09:02:38;;;;;;;4.63;1.93;;;;;;;;;;5061871;28;20205;-70
2022/03/19 09:05:06;;;;;;;21.60;6.67;;;;;;;;;;5044642;28;20604;-69
2022/03/19 09:07:33;;;;;;;29.77;9.60;;;;;;;;;;5065748;28;20745;-69
2022/03/19 09:10:09;;;;;;;31.67;9.33;;;;;;;;;;5065622;28;20296;-70
2022/03/19 09:12:41;;;;;;;35.10;9.27;;;;;;;;;;5066505;28;20207;-71
2022/03/19 09:15:16;;;;;;;32.17;9.47;;;;;;;;;;5046537;28;20212;-70
2022/03/19 09:17:48;;;;;;;32.97;8.90;;;;;;;;;;5064489;28;20189;-71
2022/03/19 09:20:18;;;;;;;29.67;9.47;;;;;;;;;;5072786;28;20240;-70
2022/03/19 09:22:49;;;;;;;30.33;9.03;;;;;;;;;;5052710;28;20623;-69
2022/03/19 09:25:21;;;;;;;24.67;8.20;;;;;;;;;;5066446;28;20198;-69
2022/03/19 09:27:52;;;;;;;22.10;7.57;;;;;;;;;;5062348;28;20337;-69
2022/03/19 09:30:21;;;;;;;18.50;7.87;;;;;;;;;;5087478;28;20189;-69
2022/03/19 09:32:50;;;;;;;22.20;7.53;;;;;;;;;;5073620;28;20201;-70
2022/03/19 09:35:42;;;;;;;20.20;7.83;;;;;;;;;;5079006;28;20189;-70
2022/03/19 09:38:25;;;;;;;20.67;7.00;;;;;;;;;;5060590;28;20231;-69
2022/03/19 09:41:00;;;;;;;18.13;6.63;;;;;;;;;;5069900;28;20220;-69
2022/03/19 09:43:31;;;;;;;17.97;6.40;;;;;;;;;;5067633;28;20221;-69
2022/03/19 09:46:13;;;;;;;13.90;5.80;;;;;;;;;;5069118;28;20225;-69
2022/03/19 09:48:47;;;;;;;14.53;6.10;;;;;;;;;;5051594;28;20204;-68
2022/03/19 09:51:18;;;;;;;15.73;5.93;;;;;;;;;;5078773;28;20214;-70
2022/03/19 09:53:51;;;;;;;16.33;5.50;;;;;;;;;;5069546;28;20682;-70
2022/03/19 09:56:33;;;;;;;15.10;5.37;;;;;;;;;;5070010;28;20267;-71
2022/03/19 09:59:09;;;;;;;14.30;4.83;;;;;;;;;;5072104;28;20216;-69
2022/03/19 10:01:41;;;;;;;10.80;3.87;;;;;;;;;;5067071;28;20217;-70
2022/03/19 10:04:12;;;;;;;12.60;4.90;;;;;;;;;;5068356;28;20210;-68
2022/03/19 10:09:48;;;;;;;10.83;4.30;;;;;;;;;;5069417;28;20198;-68
2022/03/19 10:12:20;;;;;;;9.00;4.40;;;;;;;;;;5060258;28;20201;-69
2022/03/19 10:14:51;;;;;;;10.23;4.40;;;;;;;;;;5067728;28;20214;-69
2022/03/19 10:17:37;;;;;;;10.10;4.43;;;;;;;;;;5067575;28;20201;-69
2022/03/19 10:20:14;;;;;;;7.90;4.00;;;;;;;;;;5059526;28;20631;-69
2022/03/19 10:22:45;;;;;;;6.93;3.93;;;;;;;;;;5064833;28;20190;-69
2022/03/19 10:25:18;;;;;;;9.93;4.50;;;;;;;;;;5051075;28;20276;-68
2022/03/19 10:27:49;;;;;;;8.70;3.87;;;;;;;;;;5070759;28;20205;-69
2022/03/19 10:30:24;;;;;;;7.03;3.63;;;;;;;;;;5067497;28;20186;-68
2022/03/19 10:32:57;;;;;;;8.33;3.67;;;;;;;;;;5054803;28;20185;-68
2022/03/19 10:35:27;;;;;;;7.70;3.90;;;;;;;;;;5065969;28;20241;-70
2022/03/19 10:38:03;;;;;;;6.23;3.30;;;;;;;;;;5066909;28;20196;-68
2022/03/19 10:40:42;;;;;;;9.70;3.70;;;;;;;;;;5048084;28;20688;-68
2022/03/19 10:43:13;;;;;;;166.73;36.27;;;;;;;;;;5040271;28;20856;-71
2022/03/19 10:45:49;;;;;;;112.63;21.80;;;;;;;;;;5066985;28;20201;-71
2022/03/19 10:48:27;;;;;;;73.67;14.67;;;;;;;;;;5059801;28;20186;-70
2022/03/19 10:50:57;;;;;;;48.37;12.13;;;;;;;;;;5049196;28;20206;-71
2022/03/19 10:53:36;;;;;;;39.60;10.33;;;;;;;;;;5074232;28;20201;-70
2022/03/19 10:56:09;;;;;;;31.63;8.53;;;;;;;;;;5061185;28;20189;-69
2022/03/19 10:59:02;;;;;;;36.07;8.63;;;;;;;;;;5067773;28;20198;-69
2022/03/19 11:01:37;;;;;;;26.27;7.57;;;;;;;;;;5065287;28;20894;-70
2022/03/19 11:04:12;;;;;;;26.37;6.43;;;;;;;;;;5050960;28;20716;-70
2022/03/19 11:06:51;;;;;;;18.13;5.13;;;;;;;;;;5066643;28;20185;-69
2022/03/19 11:09:22;;;;;;;15.90;4.97;;;;;;;;;;5064057;28;20217;-69
2022/03/19 11:12:09;;;;;;;16.47;4.67;;;;;;;;;;5050968;28;20201;-69
2022/03/19 11:14:41;;;;;;;15.27;4.10;;;;;;;;;;5062370;28;20210;-69
2022/03/19 11:17:33;;;;;;;11.40;3.93;;;;;;;;;;5051256;28;20202;-71
2022/03/19 11:20:15;;;;;;;13.73;4.23;;;;;;;;;;5068154;28;20206;-69
2022/03/19 11:22:54;;;;;;;13.27;3.73;;;;;;;;;;5066025;28;20562;-67
2022/03/19 11:25:32;;;;;;;19.30;3.90;;;;;;;;;;5069666;28;20184;-72
2022/03/19 11:28:07;;;;;;;9.60;3.30;;;;;;;;;;5066463;28;20219;-72
2022/03/19 11:31:07;;;;;;;9.73;3.17;;;;;;;;;;5064620;28;20202;-72
2022/03/19 11:33:45;;;;;;;9.70;2.90;;;;;;;;;;5064133;28;20220;-72
2022/03/19 11:36:20;;;;;;;5.83;2.83;;;;;;;;;;5067227;28;20209;-71
2022/03/19 11:38:56;;;;;;;5.57;2.67;;;;;;;;;;5064440;28;20212;-70
2022/03/19 11:41:57;;;;;;;7.77;2.80;;;;;;;;;;5055161;28;20221;-73
2022/03/19 11:44:29;;;;;;;4.90;2.47;;;;;;;;;;5072457;28;20679;-71
2022/03/19 11:46:59;;;;;;;4.37;2.00;;;;;;;;;;5067317;28;20502;-70
2022/03/19 11:49:48;;;;;;;6.77;2.00;;;;;;;;;;5066897;28;20190;-70
2022/03/19 11:52:29;;;;;;;8.43;2.60;;;;;;;;;;5074070;28;20251;-71
2022/03/19 11:55:10;;;;;;;4.20;1.90;;;;;;;;;;5084513;28;20221;-70
2022/03/19 11:57:56;;;;;;;7.20;2.03;;;;;;;;;;5065067;28;20197;-72
2022/03/19 12:00:30;;;;;;;3.57;2.07;;;;;;;;;;5057914;28;20205;-71
2022/03/19 12:03:24;;;;;;;3.90;1.87;;;;;;;;;;5049118;28;20216;-71
2022/03/19 12:05:57;;;;;;;3.50;1.80;;;;;;;;;;5059555;28;20619;-70
2022/03/19 12:08:26;;;;;;;4.17;1.80;;;;;;;;;;5066359;28;20194;-70
2022/03/19 12:11:01;;;;;;;3.03;1.80;;;;;;;;;;5058307;28;20247;-71
2022/03/19 12:13:31;;;;;;;3.97;1.97;;;;;;;;;;5069069;28;20193;-71
2022/03/19 12:16:04;;;;;;;4.77;1.87;;;;;;;;;;5062299;28;20952;-71
2022/03/19 12:18:46;;;;;;;3.50;1.73;;;;;;;;;;5065253;28;20302;-70
2022/03/19 12:21:21;;;;;;;3.87;1.63;;;;;;;;;;5065631;28;20276;-72
2022/03/19 12:23:57;;;;;;;4.13;1.43;;;;;;;;;;5049385;28;20186;-72
2022/03/19 12:26:41;;;;;;;4.27;1.73;;;;;;;;;;5062146;28;20672;-70
2022/03/19 12:29:17;;;;;;;3.87;1.97;;;;;;;;;;5066631;28;20213;-71
2022/03/19 12:32:05;;;;;;;3.03;1.30;;;;;;;;;;5066797;28;20885;-72
2022/03/19 12:34:34;;;;;;;3.57;1.57;;;;;;;;;;5052597;28;20217;-71
2022/03/19 12:37:07;;;;;;;2.97;1.43;;;;;;;;;;5069127;28;20218;-70
2022/03/19 12:39:37;;;;;;;3.93;1.60;;;;;;;;;;5050267;28;20213;-70
2022/03/19 12:42:07;;;;;;;2.43;1.43;;;;;;;;;;5069600;28;20229;-71
2022/03/19 12:44:40;;;;;;;5.37;1.60;;;;;;;;;;5044811;28;20186;-70
2022/03/19 12:47:19;;;;;;;3.20;1.37;;;;;;;;;;5066206;28;20190;-70
2022/03/19 12:49:53;;;;;;;3.27;1.60;;;;;;;;;;5061081;28;20636;-71
2022/03/19 12:52:26;;;;;;;2.20;1.27;;;;;;;;;;5060442;28;20708;-70
2022/03/19 12:54:58;;;;;;;9.60;2.83;;;;;;;;;;5049594;28;20251;-70
2022/03/19 12:57:35;;;;;;;48.10;12.07;;;;;;;;;;5065757;28;20186;-70
2022/03/19 13:00:06;;;;;;;29.10;9.70;;;;;;;;;;5061006;28;20210;-71
2022/03/19 13:02:38;;;;;;;25.10;8.20;;;;;;;;;;5041181;28;20212;-74
2022/03/19 13:05:11;;;;;;;26.93;8.60;;;;;;;;;;5061789;28;20190;-70
2022/03/19 13:08:00;;;;;;;26.87;8.77;;;;;;;;;;5065736;28;20193;-70
2022/03/19 13:10:46;;;;;;;29.30;8.93;;;;;;;;;;5064103;28;20198;-70
2022/03/19 13:13:18;;;;;;;31.27;8.00;;;;;;;;;;5074322;28;20356;-69
2022/03/19 13:15:49;;;;;;;27.47;7.83;;;;;;;;;;5061547;28;20213;-72
2022/03/19 13:18:32;;;;;;;22.87;7.03;;;;;;;;;;5066407;28;20248;-70
2022/03/19 13:21:08;;;;;;;24.57;6.93;;;;;;;;;;5065378;28;20751;-72
2022/03/19 13:23:43;;;;;;;22.90;7.07;;;;;;;;;;5047425;28;20193;-72
2022/03/19 13:26:15;;;;;;;16.27;5.60;;;;;;;;;;5048246;28;20197;-74
2022/03/19 13:29:16;;;;;;;15.07;5.80;;;;;;;;;;5048768;28;20197;-73
2022/03/19 13:31:48;;;;;;;17.53;5.30;;;;;;;;;;5045844;28;20510;-75
2022/03/19 13:34:29;;;;;;;19.03;5.43;;;;;;;;;;5048750;28;20260;-75
2022/03/19 13:37:21;;;;;;;12.50;4.43;;;;;;;;;;5061465;28;20197;-73
2022/03/19 13:39:59;;;;;;;15.57;4.37;;;;;;;;;;5053902;28;20710;-74
2022/03/19 13:42:34;;;;;;;17.27;4.47;;;;;;;;;;5051784;28;20259;-71
2022/03/19 13:45:12;;;;;;;10.23;3.77;;;;;;;;;;5046048;28;20389;-73
2022/03/19 13:47:46;;;;;;;9.63;3.47;;;;;;;;;;5012062;28;20862;-73
2022/03/19 13:50:22;;;;;;;9.90;4.03;;;;;;;;;;5038576;28;20206;-72
2022/03/19 13:52:54;;;;;;;9.00;3.67;;;;;;;;;;5040133;28;20206;-73
2022/03/19 13:55:30;;;;;;;10.13;3.90;;;;;;;;;;5024143;28;20217;-73
2022/03/19 13:58:03;;;;;;;7.60;3.47;;;;;;;;;;5043504;28;20277;-72
2022/03/19 14:00:39;;;;;;;7.87;3.50;;;;;;;;;;5025351;28;20204;-71
2022/03/19 14:03:24;;;;;;;6.53;2.90;;;;;;;;;;5019088;28;20243;-72
2022/03/19 14:05:55;;;;;;;4.93;2.47;;;;;;;;;;5025025;28;20198;-71
2022/03/19 14:08:26;;;;;;;6.47;2.80;;;;;;;;;;5043456;28;20261;-71
2022/03/19 14:11:20;;;;;;;8.83;2.67;;;;;;;;;;5029882;28;20950;-73
2022/03/19 14:13:50;;;;;;;5.30;2.50;;;;;;;;;;5047145;28;20659;-72
2022/03/19 14:16:19;;;;;;;6.33;2.07;;;;;;;;;;5041963;28;20218;-72
2022/03/19 14:18:52;;;;;;;5.97;2.67;;;;;;;;;;5045475;28;20855;-72
2022/03/19 14:21:28;;;;;;;4.93;2.30;;;;;;;;;;5045807;28;20201;-72
2022/03/19 14:23:59;;;;;;;5.93;2.00;;;;;;;;;;5009660;28;20201;-72
2022/03/19 14:26:30;;;;;;;4.57;2.20;;;;;;;;;;5037246;28;20210;-73
2022/03/19 14:29:05;;;;;;;7.73;2.70;;;;;;;;;;5040792;28;20674;-72
2022/03/19 14:31:35;;;;;;;4.40;1.90;;;;;;;;;;5039068;28;20205;-71
2022/03/19 14:34:19;;;;;;;5.33;2.60;;;;;;;;;;5049176;28;20210;-71
2022/03/19 14:36:49;;;;;;;6.13;1.90;;;;;;;;;;5047739;28;20632;-73
2022/03/19 14:39:20;;;;;;;4.47;1.60;;;;;;;;;;5042532;28;20243;-72
2022/03/19 14:41:51;;;;;;;3.47;1.87;;;;;;;;;;5034724;28;20241;-71
2022/03/19 14:44:22;;;;;;;5.03;1.80;;;;;;;;;;5066563;28;20627;-72
2022/03/19 14:46:54;;;;;;;2.90;1.67;;;;;;;;;;5066150;28;20209;-73
2022/03/19 14:49:26;;;;;;;3.27;1.80;;;;;;;;;;5068205;28;20201;-73
2022/03/19 14:51:56;;;;;;;4.07;1.40;;;;;;;;;;5065674;28;20259;-73
2022/03/19 14:54:26;;;;;;;3.87;1.63;;;;;;;;;;5057333;28;20285;-71
2022/03/19 14:57:06;;;;;;;4.00;1.87;;;;;;;;;;5064313;28;20936;-71
2022/03/19 14:59:34;;;;;;;3.50;1.63;;;;;;;;;;5064410;28;20206;-71
2022/03/19 15:02:17;;;;;;;3.53;1.53;;;;;;;;;;5062617;28;20328;-73
2022/03/19 15:04:48;;;;;;;4.17;1.60;;;;;;;;;;5053703;28;20217;-72
2022/03/19 15:07:21;;;;;;;3.10;1.47;;;;;;;;;;5058642;28;20540;-71
2022/03/19 15:09:50;;;;;;;3.60;1.33;;;;;;;;;;5047157;28;20203;-71
2022/03/19 15:12:22;;;;;;;2.77;1.27;;;;;;;;;;5062762;28;20201;-71
2022/03/19 15:14:54;;;;;;;5.47;1.53;;;;;;;;;;5054290;28;20217;-71
2022/03/19 15:17:31;;;;;;;2.80;1.13;;;;;;;;;;5059719;28;20255;-73
2022/03/19 15:20:04;;;;;;;2.97;1.30;;;;;;;;;;5058328;28;20201;-72
2022/03/19 15:22:49;;;;;;;5.43;1.73;;;;;;;;;;5055678;28;20332;-71
2022/03/19 15:25:22;;;;;;;3.10;0.87;;;;;;;;;;5053476;28;20256;-70
2022/03/19 15:27:52;;;;;;;3.70;1.40;;;;;;;;;;5035168;28;20221;-71
2022/03/19 15:30:23;;;;;;;4.50;1.23;;;;;;;;;;5041912;28;20202;-71
2022/03/19 15:32:56;;;;;;;3.10;1.33;;;;;;;;;;5057145;28;20190;-72
2022/03/19 15:35:27;;;;;;;2.80;1.30;;;;;;;;;;5054528;28;20202;-71
2022/03/19 15:38:00;;;;;;;4.57;1.60;;;;;;;;;;5082388;28;20202;-71
2022/03/19 15:40:30;;;;;;;3.33;1.60;;;;;;;;;;5041095;28;20222;-73